sensor_id;sensor_type;location;lat;lon;timestamp;pressure;altitude;pressure_sealevel;temperature;humidity
39729;BME280;25402;42.004;23.088;2023-05-14T00:00:54;97848.88;;;12.10;48.43
39729;BME280;25402;42.004;23.088;2023-05-14T00:03:21;97850.81;;;11.72;49.04
39729;BME280;25402;42.004;23.088;2023-05-14T00:05:48;97848.13;;;11.87;49.10
39729;BME280;25402;42.004;23.088;2023-05-14T00:08:15;97851.69;;;11.87;49.21
39729;BME280;25402;42.004;23.088;2023-05-14T00:10:42;97847.53;;;11.76;49.80
39729;BME280;25402;42.004;23.088;2023-05-14T00:13:09;97822.13;;;11.77;49.67
39729;BME280;25402;42.004;23.088;2023-05-14T00:15:36;97837.63;;;11.69;49.88
39729;BME280;25402;42.004;23.088;2023-05-14T00:18:05;97848.47;;;11.17;51.32
39729;BME280;25402;42.004;23.088;2023-05-14T00:20:32;97849.53;;;11.30;51.40
39729;BME280;25402;42.004;23.088;2023-05-14T00:22:59;97850.34;;;11.16;51.74
39729;BME280;25402;42.004;23.088;2023-05-14T00:25:26;97845.91;;;10.92;52.39
39729;BME280;25402;42.004;23.088;2023-05-14T00:27:53;97833.31;;;11.07;52.48
39729;BME280;25402;42.004;23.088;2023-05-14T00:30:20;97836.59;;;10.95;52.54
39729;BME280;25402;42.004;23.088;2023-05-14T00:32:47;97823.13;;;10.64;53.19
39729;BME280;25402;42.004;23.088;2023-05-14T00:35:15;97838.75;;;10.76;53.08
39729;BME280;25402;42.004;23.088;2023-05-14T00:37:42;97834.28;;;11.15;52.42
39729;BME280;25402;42.004;23.088;2023-05-14T00:40:10;97824.56;;;11.20;52.43
39729;BME280;25402;42.004;23.088;2023-05-14T00:42:37;97815.19;;;11.08;52.61
39729;BME280;25402;42.004;23.088;2023-05-14T00:45:05;97816.22;;;11.07;52.88
39729;BME280;25402;42.004;23.088;2023-05-14T00:47:32;97817.28;;;11.21;52.59
39729;BME280;25402;42.004;23.088;2023-05-14T00:49:59;97823.13;;;11.32;52.77
39729;BME280;25402;42.004;23.088;2023-05-14T00:52:28;97839.81;;;11.36;52.75
39729;BME280;25402;42.004;23.088;2023-05-14T00:54:55;97839.09;;;11.42;52.69
39729;BME280;25402;42.004;23.088;2023-05-14T00:57:22;97833.69;;;11.57;52.02
39729;BME280;25402;42.004;23.088;2023-05-14T00:59:49;97845.66;;;11.62;52.08
39729;BME280;25402;42.004;23.088;2023-05-14T01:02:16;97844.06;;;11.68;51.87
39729;BME280;25402;42.004;23.088;2023-05-14T01:04:43;97853.22;;;11.67;51.90
39729;BME280;25402;42.004;23.088;2023-05-14T01:07:15;97846.75;;;11.53;52.20
39729;BME280;25402;42.004;23.088;2023-05-14T01:09:50;97856.59;;;11.69;51.88
39729;BME280;25402;42.004;23.088;2023-05-14T01:12:26;97838.56;;;11.76;51.81
39729;BME280;25402;42.004;23.088;2023-05-14T01:14:59;97839.88;;;11.80;52.23
39729;BME280;25402;42.004;23.088;2023-05-14T01:17:28;97840.50;;;11.82;52.54
39729;BME280;25402;42.004;23.088;2023-05-14T01:19:58;97848.13;;;11.87;52.65
39729;BME280;25402;42.004;23.088;2023-05-14T01:22:27;97846.91;;;11.89;52.29
39729;BME280;25402;42.004;23.088;2023-05-14T01:24:54;97848.59;;;11.90;52.21
39729;BME280;25402;42.004;23.088;2023-05-14T01:27:38;97848.31;;;12.00;52.22
39729;BME280;25402;42.004;23.088;2023-05-14T01:30:12;97848.66;;;11.97;52.19
39729;BME280;25402;42.004;23.088;2023-05-14T01:32:43;97852.88;;;11.99;52.42
39729;BME280;25402;42.004;23.088;2023-05-14T01:35:13;97840.81;;;12.02;52.51
39729;BME280;25402;42.004;23.088;2023-05-14T01:37:43;97851.13;;;12.06;52.63
39729;BME280;25402;42.004;23.088;2023-05-14T01:40:11;97844.56;;;11.86;52.13
39729;BME280;25402;42.004;23.088;2023-05-14T01:42:38;97851.00;;;12.00;51.99
39729;BME280;25402;42.004;23.088;2023-05-14T01:45:07;97853.19;;;11.90;51.71
39729;BME280;25402;42.004;23.088;2023-05-14T01:47:34;97860.00;;;12.00;51.81
39729;BME280;25402;42.004;23.088;2023-05-14T01:50:01;97856.06;;;12.03;51.87
39729;BME280;25402;42.004;23.088;2023-05-14T01:52:27;97864.69;;;12.06;51.86
39729;BME280;25402;42.004;23.088;2023-05-14T01:54:56;97870.94;;;12.07;52.18
39729;BME280;25402;42.004;23.088;2023-05-14T01:57:24;97880.75;;;12.08;52.16
39729;BME280;25402;42.004;23.088;2023-05-14T01:59:51;97876.84;;;12.10;52.24
39729;BME280;25402;42.004;23.088;2023-05-14T02:02:18;97878.53;;;12.11;51.98
39729;BME280;25402;42.004;23.088;2023-05-14T02:04:44;97876.63;;;12.12;52.44
39729;BME280;25402;42.004;23.088;2023-05-14T02:07:11;97881.03;;;12.13;52.41
39729;BME280;25402;42.004;23.088;2023-05-14T02:09:38;97877.28;;;12.14;52.36
39729;BME280;25402;42.004;23.088;2023-05-14T02:12:08;97868.13;;;12.15;52.69
39729;BME280;25402;42.004;23.088;2023-05-14T02:14:35;97871.84;;;12.14;52.48
39729;BME280;25402;42.004;23.088;2023-05-14T02:17:02;97875.72;;;12.05;53.02
39729;BME280;25402;42.004;23.088;2023-05-14T02:19:29;97872.81;;;12.06;52.72
39729;BME280;25402;42.004;23.088;2023-05-14T02:21:57;97868.22;;;12.07;52.50
39729;BME280;25402;42.004;23.088;2023-05-14T02:24:24;97860.00;;;12.00;52.72
39729;BME280;25402;42.004;23.088;2023-05-14T02:26:51;97830.50;;;11.82;52.71
39729;BME280;25402;42.004;23.088;2023-05-14T02:29:19;97847.19;;;11.94;52.72
39729;BME280;25402;42.004;23.088;2023-05-14T02:31:46;97865.22;;;12.02;52.51
39729;BME280;25402;42.004;23.088;2023-05-14T02:34:13;97858.06;;;11.94;52.69
39729;BME280;25402;42.004;23.088;2023-05-14T02:36:40;97863.28;;;11.96;52.79
39729;BME280;25402;42.004;23.088;2023-05-14T02:39:07;97856.25;;;12.01;52.79
39729;BME280;25402;42.004;23.088;2023-05-14T02:41:34;97853.53;;;12.01;53.15
39729;BME280;25402;42.004;23.088;2023-05-14T02:44:01;97847.94;;;12.03;53.24
39729;BME280;25402;42.004;23.088;2023-05-14T02:46:29;97847.28;;;12.01;53.34
39729;BME280;25402;42.004;23.088;2023-05-14T02:48:56;97850.00;;;12.01;52.95
39729;BME280;25402;42.004;23.088;2023-05-14T02:51:23;97856.06;;;12.03;53.02
39729;BME280;25402;42.004;23.088;2023-05-14T02:53:51;97857.47;;;11.99;53.49
39729;BME280;25402;42.004;23.088;2023-05-14T02:56:18;97853.72;;;12.00;53.03
39729;BME280;25402;42.004;23.088;2023-05-14T02:58:45;97846.63;;;11.99;53.11
39729;BME280;25402;42.004;23.088;2023-05-14T03:01:12;97818.31;;;11.87;52.97
39729;BME280;25402;42.004;23.088;2023-05-14T03:03:40;97849.88;;;11.79;52.41
39729;BME280;25402;42.004;23.088;2023-05-14T03:06:07;97851.09;;;11.77;52.03
39729;BME280;25402;42.004;23.088;2023-05-14T03:08:34;97839.59;;;11.75;51.61
39729;BME280;25402;42.004;23.088;2023-05-14T03:11:01;97855.22;;;11.88;51.82
39729;BME280;25402;42.004;23.088;2023-05-14T03:13:28;97862.34;;;11.89;52.59
39729;BME280;25402;42.004;23.088;2023-05-14T03:15:55;97859.44;;;11.90;52.87
39729;BME280;25402;42.004;23.088;2023-05-14T03:18:22;97857.41;;;11.92;53.33
39729;BME280;25402;42.004;23.088;2023-05-14T03:20:50;97854.50;;;11.94;53.14
39729;BME280;25402;42.004;23.088;2023-05-14T03:23:17;97845.84;;;11.75;53.43
39729;BME280;25402;42.004;23.088;2023-05-14T03:25:44;97843.41;;;11.80;53.13
39729;BME280;25402;42.004;23.088;2023-05-14T03:28:11;97836.78;;;11.68;51.84
39729;BME280;25402;42.004;23.088;2023-05-14T03:30:37;97837.06;;;11.73;51.42
39729;BME280;25402;42.004;23.088;2023-05-14T03:33:04;97814.53;;;11.43;51.71
39729;BME280;25402;42.004;23.088;2023-05-14T03:35:31;97834.47;;;11.13;51.59
39729;BME280;25402;42.004;23.088;2023-05-14T03:37:59;97833.28;;;11.30;51.97
39729;BME280;25402;42.004;23.088;2023-05-14T03:40:26;97814.34;;;11.07;52.13
39729;BME280;25402;42.004;23.088;2023-05-14T03:42:53;97836.72;;;11.24;52.08
39729;BME280;25402;42.004;23.088;2023-05-14T03:45:20;97835.03;;;11.23;52.61
39729;BME280;25402;42.004;23.088;2023-05-14T03:47:47;97840.34;;;11.17;52.56
39729;BME280;25402;42.004;23.088;2023-05-14T03:50:14;97837.94;;;10.99;52.70
39729;BME280;25402;42.004;23.088;2023-05-14T03:52:41;97818.84;;;11.00;52.35
39729;BME280;25402;42.004;23.088;2023-05-14T03:55:10;97846.81;;;11.30;52.23
39729;BME280;25402;42.004;23.088;2023-05-14T03:57:39;97851.72;;;11.12;52.04
39729;BME280;25402;42.004;23.088;2023-05-14T04:00:07;97857.31;;;11.10;51.78
39729;BME280;25402;42.004;23.088;2023-05-14T04:02:37;97854.16;;;11.22;52.09
39729;BME280;25402;42.004;23.088;2023-05-14T04:05:06;97856.16;;;11.28;51.70
39729;BME280;25402;42.004;23.088;2023-05-14T04:07:33;97879.38;;;11.45;51.38
39729;BME280;25402;42.004;23.088;2023-05-14T04:10:00;97875.44;;;11.48;51.41
39729;BME280;25402;42.004;23.088;2023-05-14T04:12:28;97883.38;;;11.49;51.27
39729;BME280;25402;42.004;23.088;2023-05-14T04:14:58;97881.81;;;11.55;51.21
39729;BME280;25402;42.004;23.088;2023-05-14T04:17:31;97911.72;;;11.61;50.77
39729;BME280;25402;42.004;23.088;2023-05-14T04:19:59;97907.34;;;11.60;50.81
39729;BME280;25402;42.004;23.088;2023-05-14T04:22:26;97929.94;;;11.67;51.47
39729;BME280;25402;42.004;23.088;2023-05-14T04:24:54;97920.22;;;11.35;50.97
39729;BME280;25402;42.004;23.088;2023-05-14T04:27:21;97929.88;;;11.38;51.39
39729;BME280;25402;42.004;23.088;2023-05-14T04:29:49;97942.28;;;11.32;52.18
39729;BME280;25402;42.004;23.088;2023-05-14T04:32:16;97930.47;;;11.48;51.71
39729;BME280;25402;42.004;23.088;2023-05-14T04:34:43;97930.09;;;11.51;51.48
39729;BME280;25402;42.004;23.088;2023-05-14T04:37:11;97902.78;;;11.38;51.52
39729;BME280;25402;42.004;23.088;2023-05-14T04:39:38;97928.03;;;11.16;51.56
39729;BME280;25402;42.004;23.088;2023-05-14T04:42:05;97930.97;;;11.06;52.13
39729;BME280;25402;42.004;23.088;2023-05-14T04:44:32;97951.63;;;10.99;52.19
39729;BME280;25402;42.004;23.088;2023-05-14T04:47:01;97960.97;;;11.19;51.84
39729;BME280;25402;42.004;23.088;2023-05-14T04:49:28;97964.84;;;11.25;51.96
39729;BME280;25402;42.004;23.088;2023-05-14T04:51:55;97974.31;;;11.29;52.33
39729;BME280;25402;42.004;23.088;2023-05-14T04:54:22;97963.97;;;11.32;52.00
39729;BME280;25402;42.004;23.088;2023-05-14T04:56:49;97968.09;;;11.43;51.99
39729;BME280;25402;42.004;23.088;2023-05-14T04:59:15;97957.31;;;11.35;52.24
39729;BME280;25402;42.004;23.088;2023-05-14T05:01:42;97975.03;;;11.45;52.32
39729;BME280;25402;42.004;23.088;2023-05-14T05:04:14;97995.72;;;11.61;52.56
39729;BME280;25402;42.004;23.088;2023-05-14T05:06:42;97940.47;;;11.25;52.46
39729;BME280;25402;42.004;23.088;2023-05-14T05:09:10;98000.13;;;11.62;52.97
39729;BME280;25402;42.004;23.088;2023-05-14T05:11:38;98002.28;;;11.67;52.98
39729;BME280;25402;42.004;23.088;2023-05-14T05:14:07;97991.34;;;11.60;53.15
39729;BME280;25402;42.004;23.088;2023-05-14T05:16:38;98002.34;;;11.59;52.97
39729;BME280;25402;42.004;23.088;2023-05-14T05:19:05;98007.94;;;11.57;53.05
39729;BME280;25402;42.004;23.088;2023-05-14T05:21:33;98019.63;;;11.58;53.02
39729;BME280;25402;42.004;23.088;2023-05-14T05:24:01;98021.84;;;11.54;53.00
39729;BME280;25402;42.004;23.088;2023-05-14T05:26:31;98034.69;;;11.60;52.89
39729;BME280;25402;42.004;23.088;2023-05-14T05:29:01;98022.53;;;11.56;52.75
39729;BME280;25402;42.004;23.088;2023-05-14T05:31:28;98032.25;;;11.65;52.57
39729;BME280;25402;42.004;23.088;2023-05-14T05:33:57;98024.13;;;11.65;53.05
39729;BME280;25402;42.004;23.088;2023-05-14T05:36:24;98001.19;;;11.53;53.19
39729;BME280;25402;42.004;23.088;2023-05-14T05:38:53;98004.50;;;11.18;53.88
39729;BME280;25402;42.004;23.088;2023-05-14T05:41:24;98000.56;;;10.89;54.88
39729;BME280;25402;42.004;23.088;2023-05-14T05:43:51;98008.34;;;11.00;54.21
39729;BME280;25402;42.004;23.088;2023-05-14T05:46:18;97996.06;;;11.13;54.03
39729;BME280;25402;42.004;23.088;2023-05-14T05:48:45;97987.59;;;11.16;53.64
39729;BME280;25402;42.004;23.088;2023-05-14T05:51:12;97991.25;;;11.23;53.71
39729;BME280;25402;42.004;23.088;2023-05-14T05:53:39;97984.66;;;11.25;53.64
39729;BME280;25402;42.004;23.088;2023-05-14T05:56:07;97985.91;;;11.37;53.46
39729;BME280;25402;42.004;23.088;2023-05-14T05:58:34;97992.47;;;11.43;53.51
39729;BME280;25402;42.004;23.088;2023-05-14T06:01:01;97984.84;;;11.46;53.33
39729;BME280;25402;42.004;23.088;2023-05-14T06:03:28;97969.97;;;11.42;52.66
39729;BME280;25402;42.004;23.088;2023-05-14T06:05:55;97994.88;;;11.61;52.67
39729;BME280;25402;42.004;23.088;2023-05-14T06:08:22;98004.88;;;11.60;52.71
39729;BME280;25402;42.004;23.088;2023-05-14T06:10:49;97989.97;;;11.64;52.58
39729;BME280;25402;42.004;23.088;2023-05-14T06:13:17;97983.44;;;11.73;52.82
39729;BME280;25402;42.004;23.088;2023-05-14T06:15:44;97976.22;;;11.80;52.73
39729;BME280;25402;42.004;23.088;2023-05-14T06:18:11;97971.09;;;11.86;52.67
39729;BME280;25402;42.004;23.088;2023-05-14T06:20:37;97956.91;;;11.83;52.84
39729;BME280;25402;42.004;23.088;2023-05-14T06:23:05;97973.31;;;11.90;51.97
39729;BME280;25402;42.004;23.088;2023-05-14T06:25:32;97972.94;;;11.70;51.17
39729;BME280;25402;42.004;23.088;2023-05-14T06:27:59;97966.81;;;11.76;51.47
39729;BME280;25402;42.004;23.088;2023-05-14T06:30:27;97954.53;;;11.80;51.33
39729;BME280;25402;42.004;23.088;2023-05-14T06:32:54;97947.25;;;11.81;51.23
39729;BME280;25402;42.004;23.088;2023-05-14T06:35:22;97926.78;;;11.64;51.17
39729;BME280;25402;42.004;23.088;2023-05-14T06:37:49;97940.47;;;11.48;51.08
39729;BME280;25402;42.004;23.088;2023-05-14T06:40:16;97939.63;;;11.47;51.15
39729;BME280;25402;42.004;23.088;2023-05-14T06:42:43;97948.69;;;11.54;51.31
39729;BME280;25402;42.004;23.088;2023-05-14T06:45:10;97944.31;;;11.53;51.48
39729;BME280;25402;42.004;23.088;2023-05-14T06:47:39;97947.38;;;11.50;51.47
39729;BME280;25402;42.004;23.088;2023-05-14T06:50:06;97944.69;;;11.27;52.29
39729;BME280;25402;42.004;23.088;2023-05-14T06:52:33;97933.84;;;11.04;51.99
39729;BME280;25402;42.004;23.088;2023-05-14T06:55:00;97928.22;;;11.14;52.09
39729;BME280;25402;42.004;23.088;2023-05-14T06:57:27;97927.41;;;11.05;51.91
39729;BME280;25402;42.004;23.088;2023-05-14T06:59:54;97949.97;;;11.21;51.96
39729;BME280;25402;42.004;23.088;2023-05-14T07:02:21;97953.88;;;11.18;51.68
39729;BME280;25402;42.004;23.088;2023-05-14T07:04:50;97957.69;;;11.32;51.90
39729;BME280;25402;42.004;23.088;2023-05-14T07:07:17;97951.53;;;11.38;52.04
39729;BME280;25402;42.004;23.088;2023-05-14T07:09:45;97946.06;;;11.46;52.29
39729;BME280;25402;42.004;23.088;2023-05-14T07:12:12;97966.81;;;11.54;52.20
39729;BME280;25402;42.004;23.088;2023-05-14T07:14:39;97974.41;;;11.58;52.30
39729;BME280;25402;42.004;23.088;2023-05-14T07:17:06;97968.28;;;11.64;52.16
39729;BME280;25402;42.004;23.088;2023-05-14T07:19:33;97984.63;;;11.71;52.31
39729;BME280;25402;42.004;23.088;2023-05-14T07:22:01;98002.22;;;11.75;52.42
39729;BME280;25402;42.004;23.088;2023-05-14T07:24:28;98008.84;;;11.72;52.55
39729;BME280;25402;42.004;23.088;2023-05-14T07:26:55;98001.03;;;11.77;52.34
39729;BME280;25402;42.004;23.088;2023-05-14T07:29:22;97997.09;;;11.80;52.49
39729;BME280;25402;42.004;23.088;2023-05-14T07:31:50;98007.06;;;11.88;52.51
39729;BME280;25402;42.004;23.088;2023-05-14T07:34:17;98007.72;;;11.90;52.37
39729;BME280;25402;42.004;23.088;2023-05-14T07:36:44;97998.56;;;11.91;52.28
39729;BME280;25402;42.004;23.088;2023-05-14T07:39:12;97978.94;;;11.80;52.01
39729;BME280;25402;42.004;23.088;2023-05-14T07:41:39;97979.03;;;11.72;51.20
39729;BME280;25402;42.004;23.088;2023-05-14T07:44:06;97985.25;;;11.58;50.42
39729;BME280;25402;42.004;23.088;2023-05-14T07:46:33;97992.41;;;11.51;50.83
39729;BME280;25402;42.004;23.088;2023-05-14T07:49:00;97990.66;;;11.35;51.06
39729;BME280;25402;42.004;23.088;2023-05-14T07:51:26;97969.19;;;11.11;50.93
39729;BME280;25402;42.004;23.088;2023-05-14T07:53:53;97992.00;;;11.17;51.40
39729;BME280;25402;42.004;23.088;2023-05-14T07:56:22;97980.94;;;10.87;51.59
39729;BME280;25402;42.004;23.088;2023-05-14T07:58:49;97999.66;;;11.05;51.44
39729;BME280;25402;42.004;23.088;2023-05-14T08:01:16;98005.44;;;11.02;51.82
39729;BME280;25402;42.004;23.088;2023-05-14T08:03:43;98000.88;;;10.55;51.80
39729;BME280;25402;42.004;23.088;2023-05-14T08:06:10;97992.06;;;10.61;52.14
39729;BME280;25402;42.004;23.088;2023-05-14T08:08:37;97987.22;;;10.49;52.40
39729;BME280;25402;42.004;23.088;2023-05-14T08:11:04;97992.00;;;10.77;51.73
39729;BME280;25402;42.004;23.088;2023-05-14T08:13:32;97989.56;;;10.91;52.24
39729;BME280;25402;42.004;23.088;2023-05-14T08:15:59;97991.38;;;11.06;52.15
39729;BME280;25402;42.004;23.088;2023-05-14T08:18:26;97994.50;;;11.18;51.69
39729;BME280;25402;42.004;23.088;2023-05-14T08:20:52;97997.00;;;11.28;52.16
39729;BME280;25402;42.004;23.088;2023-05-14T08:23:19;97991.63;;;11.42;52.23
39729;BME280;25402;42.004;23.088;2023-05-14T08:25:46;97992.41;;;11.51;52.36
39729;BME280;25402;42.004;23.088;2023-05-14T08:28:13;97976.94;;;11.60;51.92
39729;BME280;25402;42.004;23.088;2023-05-14T08:30:42;97958.72;;;11.68;52.12
39729;BME280;25402;42.004;23.088;2023-05-14T08:33:08;97946.81;;;11.77;51.76
39729;BME280;25402;42.004;23.088;2023-05-14T08:35:35;97949.59;;;11.84;51.20
39729;BME280;25402;42.004;23.088;2023-05-14T08:38:02;97957.41;;;11.87;51.29
39729;BME280;25402;42.004;23.088;2023-05-14T08:40:29;97955.75;;;12.01;51.47
39729;BME280;25402;42.004;23.088;2023-05-14T08:42:56;97969.13;;;12.17;51.22
39729;BME280;25402;42.004;23.088;2023-05-14T08:45:29;97965.94;;;12.28;51.46
39729;BME280;25402;42.004;23.088;2023-05-14T08:48:00;97968.94;;;12.33;51.20
39729;BME280;25402;42.004;23.088;2023-05-14T08:50:30;97976.06;;;12.34;51.12
39729;BME280;25402;42.004;23.088;2023-05-14T08:52:57;97982.44;;;12.41;51.03
39729;BME280;25402;42.004;23.088;2023-05-14T08:55:25;97962.59;;;12.41;51.11
39729;BME280;25402;42.004;23.088;2023-05-14T08:57:53;97940.97;;;12.47;51.02
39729;BME280;25402;42.004;23.088;2023-05-14T09:00:21;97953.97;;;12.67;50.98
39729;BME280;25402;42.004;23.088;2023-05-14T09:02:49;97921.75;;;12.64;50.63
39729;BME280;25402;42.004;23.088;2023-05-14T09:05:18;97947.31;;;12.84;50.39
39729;BME280;25402;42.004;23.088;2023-05-14T09:07:46;97952.38;;;12.87;49.97
39729;BME280;25402;42.004;23.088;2023-05-14T09:10:13;97948.34;;;12.83;50.44
39729;BME280;25402;42.004;23.088;2023-05-14T09:12:41;97951.63;;;12.78;50.40
39729;BME280;25402;42.004;23.088;2023-05-14T09:15:08;97949.47;;;12.89;50.06
39729;BME280;25402;42.004;23.088;2023-05-14T09:17:35;97952.00;;;12.90;50.12
39729;BME280;25402;42.004;23.088;2023-05-14T09:20:02;97955.59;;;12.97;50.02
39729;BME280;25402;42.004;23.088;2023-05-14T09:22:31;97962.88;;;13.11;50.01
39729;BME280;25402;42.004;23.088;2023-05-14T09:25:04;97958.59;;;13.02;49.92
39729;BME280;25402;42.004;23.088;2023-05-14T09:27:32;97945.91;;;13.09;49.70
39729;BME280;25402;42.004;23.088;2023-05-14T09:30:07;97944.03;;;13.10;49.04
39729;BME280;25402;42.004;23.088;2023-05-14T09:32:35;97963.41;;;13.22;49.02
39729;BME280;25402;42.004;23.088;2023-05-14T09:35:10;97951.38;;;13.31;49.24
39729;BME280;25402;42.004;23.088;2023-05-14T09:37:40;97953.25;;;13.30;49.61
39729;BME280;25402;42.004;23.088;2023-05-14T09:40:09;97950.38;;;13.38;49.43
39729;BME280;25402;42.004;23.088;2023-05-14T09:42:36;97952.69;;;13.35;48.58
39729;BME280;25402;42.004;23.088;2023-05-14T09:45:06;97937.91;;;13.44;48.28
39729;BME280;25402;42.004;23.088;2023-05-14T09:47:33;97924.03;;;13.53;48.09
39729;BME280;25402;42.004;23.088;2023-05-14T09:50:00;97915.28;;;13.58;47.71
39729;BME280;25402;42.004;23.088;2023-05-14T09:52:27;97913.59;;;13.57;48.14
39729;BME280;25402;42.004;23.088;2023-05-14T09:54:55;97916.97;;;13.59;47.14
39729;BME280;25402;42.004;23.088;2023-05-14T09:57:22;97922.19;;;13.39;46.64
39729;BME280;25402;42.004;23.088;2023-05-14T09:59:51;97925.63;;;13.48;47.54
39729;BME280;25402;42.004;23.088;2023-05-14T10:02:22;97908.03;;;13.65;47.90
39729;BME280;25402;42.004;23.088;2023-05-14T10:04:50;97905.69;;;13.90;47.01
39729;BME280;25402;42.004;23.088;2023-05-14T10:07:21;97895.56;;;13.77;46.34
39729;BME280;25402;42.004;23.088;2023-05-14T10:09:53;97858.22;;;13.37;46.31
39729;BME280;25402;42.004;23.088;2023-05-14T10:12:27;97858.34;;;13.07;45.80
39729;BME280;25402;42.004;23.088;2023-05-14T10:14:56;97871.47;;;12.82;46.64
39729;BME280;25402;42.004;23.088;2023-05-14T10:17:30;97877.59;;;12.70;47.11
39729;BME280;25402;42.004;23.088;2023-05-14T10:19:58;97876.91;;;12.82;46.89
39729;BME280;25402;42.004;23.088;2023-05-14T10:22:30;97877.78;;;13.04;46.54
39729;BME280;25402;42.004;23.088;2023-05-14T10:24:59;97881.84;;;13.36;46.22
39729;BME280;25402;42.004;23.088;2023-05-14T10:27:29;97884.28;;;13.31;45.65
39729;BME280;25402;42.004;23.088;2023-05-14T10:29:56;97892.34;;;13.46;45.74
39729;BME280;25402;42.004;23.088;2023-05-14T10:32:24;97870.19;;;13.70;45.35
39729;BME280;25402;42.004;23.088;2023-05-14T10:34:52;97881.41;;;14.23;45.06
39729;BME280;25402;42.004;23.088;2023-05-14T10:37:21;97883.84;;;14.39;44.40
39729;BME280;25402;42.004;23.088;2023-05-14T10:39:50;97867.16;;;14.55;43.26
39729;BME280;25402;42.004;23.088;2023-05-14T10:42:19;97880.47;;;14.91;42.91
39729;BME280;25402;42.004;23.088;2023-05-14T10:44:53;97855.59;;;15.14;42.90
39729;BME280;25402;42.004;23.088;2023-05-14T10:47:22;97884.34;;;15.50;42.19
39729;BME280;25402;42.004;23.088;2023-05-14T10:49:52;97882.69;;;15.82;41.29
39729;BME280;25402;42.004;23.088;2023-05-14T10:52:20;97871.75;;;16.02;39.97
39729;BME280;25402;42.004;23.088;2023-05-14T10:54:52;97879.19;;;16.39;39.86
39729;BME280;25402;42.004;23.088;2023-05-14T10:57:20;97880.66;;;16.48;39.56
39729;BME280;25402;42.004;23.088;2023-05-14T10:59:48;97889.28;;;16.45;40.11
39729;BME280;25402;42.004;23.088;2023-05-14T11:02:23;97868.72;;;16.29;39.32
39729;BME280;25402;42.004;23.088;2023-05-14T11:04:54;97884.22;;;16.42;39.11
39729;BME280;25402;42.004;23.088;2023-05-14T11:07:23;97904.69;;;15.54;40.19
39729;BME280;25402;42.004;23.088;2023-05-14T11:09:51;97893.00;;;14.79;42.16
39729;BME280;25402;42.004;23.088;2023-05-14T11:12:18;97889.47;;;14.03;44.09
39729;BME280;25402;42.004;23.088;2023-05-14T11:14:46;97894.69;;;13.49;45.21
39729;BME280;25402;42.004;23.088;2023-05-14T11:17:13;97897.09;;;13.37;46.18
39729;BME280;25402;42.004;23.088;2023-05-14T11:19:43;97902.28;;;12.90;47.15
39729;BME280;25402;42.004;23.088;2023-05-14T11:22:10;97903.53;;;12.72;47.62
39729;BME280;25402;42.004;23.088;2023-05-14T11:24:39;97902.03;;;12.70;48.10
39729;BME280;25402;42.004;23.088;2023-05-14T11:27:07;97886.66;;;12.62;48.13
39729;BME280;25402;42.004;23.088;2023-05-14T11:29:34;97872.28;;;12.47;48.62
39729;BME280;25402;42.004;23.088;2023-05-14T11:32:04;97873.50;;;12.74;48.08
39729;BME280;25402;42.004;23.088;2023-05-14T11:34:31;97868.25;;;12.72;48.28
39729;BME280;25402;42.004;23.088;2023-05-14T11:37:02;97864.56;;;13.01;46.96
39729;BME280;25402;42.004;23.088;2023-05-14T11:39:30;97847.31;;;12.88;46.97
39729;BME280;25402;42.004;23.088;2023-05-14T11:41:57;97865.09;;;13.11;47.26
39729;BME280;25402;42.004;23.088;2023-05-14T11:44:24;97858.81;;;13.11;46.74
39729;BME280;25402;42.004;23.088;2023-05-14T11:46:55;97871.78;;;13.58;46.25
39729;BME280;25402;42.004;23.088;2023-05-14T11:49:21;97877.84;;;13.53;45.99
39729;BME280;25402;42.004;23.088;2023-05-14T11:51:49;97866.31;;;13.30;45.98
39729;BME280;25402;42.004;23.088;2023-05-14T11:54:17;97869.97;;;13.23;46.16
39729;BME280;25402;42.004;23.088;2023-05-14T11:56:49;97859.41;;;13.06;46.64
39729;BME280;25402;42.004;23.088;2023-05-14T11:59:16;97860.94;;;12.94;46.32
39729;BME280;25402;42.004;23.088;2023-05-14T12:01:44;97862.13;;;12.85;47.07
39729;BME280;25402;42.004;23.088;2023-05-14T12:04:11;97862.22;;;12.77;46.89
39729;BME280;25402;42.004;23.088;2023-05-14T12:06:38;97857.00;;;12.61;47.33
39729;BME280;25402;42.004;23.088;2023-05-14T12:09:06;97841.13;;;12.58;47.53
39729;BME280;25402;42.004;23.088;2023-05-14T12:11:36;97849.78;;;12.68;47.31
39729;BME280;25402;42.004;23.088;2023-05-14T12:14:09;97831.94;;;12.59;47.23
39729;BME280;25402;42.004;23.088;2023-05-14T12:16:39;97826.84;;;12.34;47.52
39729;BME280;25402;42.004;23.088;2023-05-14T12:19:10;97819.91;;;12.32;47.63
39729;BME280;25402;42.004;23.088;2023-05-14T12:21:38;97828.31;;;12.51;48.30
39729;BME280;25402;42.004;23.088;2023-05-14T12:24:09;97813.13;;;12.57;48.47
39729;BME280;25402;42.004;23.088;2023-05-14T12:26:46;97806.84;;;12.71;48.03
39729;BME280;25402;42.004;23.088;2023-05-14T12:29:14;97806.47;;;12.60;48.02
39729;BME280;25402;42.004;23.088;2023-05-14T12:31:45;97805.53;;;12.31;48.17
39729;BME280;25402;42.004;23.088;2023-05-14T12:34:16;97804.41;;;12.62;47.97
39729;BME280;25402;42.004;23.088;2023-05-14T12:36:44;97799.78;;;12.77;47.96
39729;BME280;25402;42.004;23.088;2023-05-14T12:39:11;97806.41;;;12.89;47.46
39729;BME280;25402;42.004;23.088;2023-05-14T12:41:38;97814.84;;;13.01;47.02
39729;BME280;25402;42.004;23.088;2023-05-14T12:44:07;97807.63;;;12.87;47.30
39729;BME280;25402;42.004;23.088;2023-05-14T12:46:34;97803.13;;;12.58;47.64
39729;BME280;25402;42.004;23.088;2023-05-14T12:49:00;97796.53;;;12.67;47.96
39729;BME280;25402;42.004;23.088;2023-05-14T12:51:27;97795.41;;;12.61;47.99
39729;BME280;25402;42.004;23.088;2023-05-14T12:53:54;97795.53;;;12.89;47.23